createdAt,value
2023-11-02T00:00:35.659Z,97388.94
2023-11-02T00:03:09.025Z,97373.03
2023-11-02T00:06:16.245Z,97361.94
2023-11-02T00:08:52.033Z,97361.19
2023-11-02T00:11:52.178Z,97334.66
2023-11-02T00:14:20.276Z,97315.22
2023-11-02T00:16:50.516Z,97338.22
2023-11-02T00:19:36.511Z,97303.41
2023-11-02T00:22:10.866Z,97281.38
2023-11-02T00:24:45.841Z,97275.91
2023-11-02T00:27:17.027Z,97256.44
2023-11-02T00:29:43.701Z,97260.03
2023-11-02T00:32:10.670Z,97245.72
2023-11-02T00:34:40.959Z,97255.91
2023-11-02T00:37:08.132Z,97238.78
2023-11-02T00:39:34.965Z,97221.63
2023-11-02T00:42:01.879Z,97198.22
2023-11-02T00:44:28.780Z,97200.75
2023-11-02T00:46:58.701Z,97179.56
2023-11-02T00:49:32.879Z,97176.53
2023-11-02T00:52:02.251Z,97144.50
2023-11-02T00:54:50.532Z,97148.00
2023-11-02T00:57:27.976Z,97136.91
2023-11-02T00:59:57.070Z,97113.44
2023-11-02T01:02:35.030Z,97094.75
2023-11-02T01:05:04.430Z,97094.22
2023-11-02T01:07:35.080Z,97073.50
2023-11-02T01:10:06.378Z,97063.16
2023-11-02T01:12:34.076Z,97070.94
2023-11-02T01:15:06.721Z,97053.03
2023-11-02T01:17:41.335Z,97049.72
2023-11-02T01:20:08.243Z,97034.56
2023-11-02T01:23:19.457Z,97017.91
2023-11-02T01:25:50.466Z,97017.91
2023-11-02T01:28:19.748Z,97012.34
2023-11-02T01:30:49.900Z,97005.28
2023-11-02T01:33:34.961Z,96986.91
2023-11-02T01:36:06.078Z,97033.13
2023-11-02T01:38:34.242Z,97056.59
2023-11-02T01:41:21.422Z,97032.66
2023-11-02T01:43:56.266Z,97013.06
2023-11-02T01:46:29.819Z,96974.97
2023-11-02T01:49:07.623Z,96939.94
2023-11-02T01:51:55.941Z,96906.16
2023-11-02T01:54:32.771Z,96903.41
2023-11-02T01:57:07.231Z,96915.75
2023-11-02T01:59:51.709Z,96891.84
2023-11-02T02:02:38.751Z,96854.22
2023-11-02T02:05:27.685Z,96851.47
2023-11-02T02:08:09.133Z,96821.47
2023-11-02T02:10:56.910Z,96815.16
2023-11-02T02:13:29.854Z,96795.50
2023-11-02T02:16:07.298Z,96767.50
2023-11-02T02:18:42.919Z,96754.16
2023-11-02T02:21:39.423Z,96744.31
2023-11-02T02:24:26.077Z,96718.41
2023-11-02T02:27:10.965Z,96697.44
2023-11-02T02:29:52.939Z,96679.06
2023-11-02T02:32:56.473Z,96652.38
2023-11-02T02:35:38.421Z,96634.72
2023-11-02T02:38:08.167Z,96620.63
2023-11-02T02:40:40.504Z,96591.41
2023-11-02T02:43:12.885Z,96587.13
2023-11-02T02:45:40.801Z,96557.34
2023-11-02T02:48:11.368Z,96544.56
2023-11-02T02:50:40.257Z,96527.91
2023-11-02T02:53:10.351Z,96510.50
2023-11-02T02:55:39.973Z,96494.41
2023-11-02T02:58:10.278Z,96475.00
2023-11-02T03:00:37.473Z,96444.47
2023-11-02T03:03:06.121Z,96430.59
2023-11-02T03:05:36.711Z,96408.19
2023-11-02T03:08:07.628Z,96400.63
2023-11-02T03:10:40.260Z,96377.69
2023-11-02T03:13:11.202Z,96378.94
2023-11-02T03:15:42.692Z,96368.59
2023-11-02T03:18:13.330Z,96338.63
2023-11-02T03:20:46.555Z,96324.75
2023-11-02T03:23:16.109Z,96326.78
2023-11-02T03:25:49.155Z,96324.22
2023-11-02T03:28:31.198Z,96345.66
2023-11-02T03:31:37.380Z,96304.59
2023-11-02T03:34:15.782Z,96301.06
2023-11-02T03:36:48.508Z,96287.19
2023-11-02T03:39:41.410Z,96283.69
2023-11-02T03:42:16.991Z,96288.50
2023-11-02T03:45:03.442Z,96273.88
2023-11-02T03:48:01.339Z,96256.47
2023-11-02T03:50:34.509Z,96239.09
2023-11-02T03:53:20.394Z,96249.44
2023-11-02T03:56:28.610Z,96218.19
2023-11-02T03:59:12.777Z,96210.41
2023-11-02T04:01:48.200Z,96200.59
2023-11-02T04:04:27.299Z,96172.84
2023-11-02T04:07:06.109Z,96174.16
2023-11-02T04:09:42.626Z,96156.75
2023-11-02T04:12:28.470Z,96131.78
2023-11-02T04:15:00.065Z,96131.03
2023-11-02T04:17:27.943Z,96124.00
2023-11-02T04:19:57.860Z,96119.22
2023-11-02T04:22:24.640Z,96110.16
2023-11-02T04:24:58.633Z,96101.06
2023-11-02T04:27:25.384Z,96094.06
2023-11-02T04:29:52.040Z,96085.72
2023-11-02T04:32:18.958Z,96077.41
2023-11-02T04:34:45.608Z,96068.34
2023-11-02T04:37:18.225Z,96054.47
2023-11-02T04:39:45.852Z,96034.31
2023-11-02T04:42:12.927Z,96019.69
2023-11-02T04:44:40.056Z,95998.81
2023-11-02T04:47:06.818Z,96002.34
2023-11-02T04:49:36.385Z,95990.50
2023-11-02T04:52:07.464Z,95978.66
2023-11-02T04:54:37.197Z,95964.03
2023-11-02T04:57:04.686Z,95947.41
2023-11-02T04:59:44.897Z,95937.81
2023-11-02T05:02:12.110Z,95918.94
2023-11-02T05:04:39.281Z,95914.13
2023-11-02T05:07:07.228Z,95903.03
2023-11-02T05:09:34.090Z,95881.59
2023-11-02T05:12:00.814Z,95878.81
2023-11-02T05:14:29.669Z,95862.94
2023-11-02T05:16:56.285Z,95857.41
2023-11-02T05:19:27.428Z,95834.47
2023-11-02T05:21:54.134Z,95832.63
2023-11-02T05:24:20.819Z,95820.03
2023-11-02T05:26:47.458Z,95806.19
2023-11-02T05:29:14.203Z,95796.38
2023-11-02T05:31:45.602Z,95789.53
2023-11-02T05:34:12.411Z,95786.78
2023-11-02T05:36:39.112Z,95772.19
2023-11-02T05:39:08.146Z,95760.34
2023-11-02T05:41:34.902Z,95761.63
2023-11-02T05:44:03.798Z,95747.75
2023-11-02T05:46:31.194Z,95740.94
2023-11-02T05:49:00.347Z,95737.41
2023-11-02T05:51:29.310Z,95722.81
2023-11-02T05:53:56.164Z,95709.88
2023-11-02T05:56:25.782Z,95702.31
2023-11-02T05:58:58.347Z,95687.69
2023-11-02T06:01:26.163Z,95680.13
2023-11-02T06:03:55.528Z,95680.88
2023-11-02T06:06:22.263Z,95674.03
2023-11-02T06:08:48.913Z,95673.28
2023-11-02T06:11:18.188Z,95678.81
2023-11-02T06:13:44.867Z,95668.47
2023-11-02T06:16:12.149Z,95664.03
2023-11-02T06:18:38.864Z,95661.81
2023-11-02T06:21:10.956Z,95658.84
2023-11-02T06:23:37.628Z,95661.41
2023-11-02T06:26:04.851Z,95668.25
2023-11-02T06:28:34.675Z,95669.53
2023-11-02T06:31:02.000Z,95675.09
2023-11-02T06:33:35.510Z,95669.06
2023-11-02T06:36:02.381Z,95680.72
2023-11-02T06:38:30.701Z,95669.44
2023-11-02T06:40:57.730Z,95669.44
2023-11-02T06:43:30.007Z,95672.22
2023-11-02T06:45:59.473Z,95681.66
2023-11-02T06:48:26.388Z,95682.59
2023-11-02T06:50:53.052Z,95692.56
2023-11-02T06:53:19.671Z,95701.09
2023-11-02T06:55:46.382Z,95706.13
2023-11-02T06:58:13.028Z,95711.84
2023-11-02T07:00:43.263Z,95725.75
2023-11-02T07:03:10.122Z,95725.19
2023-11-02T07:05:36.973Z,95730.19
2023-11-02T07:08:03.653Z,95729.44
2023-11-02T07:10:32.092Z,95739.44
2023-11-02T07:12:58.816Z,95749.09
2023-11-02T07:15:25.945Z,95756.69
2023-11-02T07:17:52.712Z,95764.63
2023-11-02T07:20:19.388Z,95775.78
2023-11-02T07:22:48.358Z,95783.00
2023-11-02T07:25:15.084Z,95794.50
2023-11-02T07:27:45.429Z,95810.81
2023-11-02T07:30:16.385Z,95820.84
2023-11-02T07:32:45.979Z,95829.34
2023-11-02T07:35:15.097Z,95841.38
2023-11-02T07:37:41.711Z,95844.34
2023-11-02T07:40:11.219Z,95860.50
2023-11-02T07:42:38.918Z,95880.69
2023-11-02T07:45:08.369Z,95891.47
2023-11-02T07:47:35.274Z,95903.31
2023-11-02T07:50:01.925Z,95911.84
2023-11-02T07:52:28.639Z,95924.47
2023-11-02T07:54:55.243Z,95937.06
2023-11-02T07:57:24.351Z,95947.28
2023-11-02T07:59:56.371Z,95962.31
2023-11-02T08:02:23.013Z,95974.34
2023-11-02T08:04:49.707Z,95988.66
2023-11-02T08:07:18.972Z,95990.34
2023-11-02T08:09:45.632Z,96002.22
2023-11-02T08:12:17.830Z,96017.78
2023-11-02T08:14:44.980Z,96025.03
2023-11-02T08:17:13.461Z,96033.38
2023-11-02T08:19:40.177Z,96041.16
2023-11-02T08:22:06.853Z,96048.78
2023-11-02T08:24:33.593Z,96054.91
2023-11-02T08:27:00.243Z,96063.63
2023-11-02T08:29:26.907Z,96081.78
2023-11-02T08:31:55.963Z,96088.84
2023-11-02T08:34:23.506Z,96095.56
2023-11-02T08:36:50.765Z,96112.97
2023-11-02T08:39:18.740Z,96120.59
2023-11-02T08:41:45.368Z,96140.63
2023-11-02T08:44:12.383Z,96157.88
2023-11-02T08:46:40.456Z,96164.00
2023-11-02T08:49:07.364Z,96182.72
2023-11-02T08:51:34.434Z,96194.44
2023-11-02T08:54:03.956Z,96210.94
2023-11-02T08:56:30.766Z,96231.88
2023-11-02T08:59:02.326Z,96235.97
2023-11-02T09:01:30.031Z,96253.22
2023-11-02T09:03:58.384Z,96262.09
2023-11-02T09:06:28.277Z,96284.50
2023-11-02T09:08:58.575Z,96293.63
2023-11-02T09:11:31.086Z,96315.56
2023-11-02T09:14:02.405Z,96326.75
2023-11-02T09:16:32.330Z,96333.84
2023-11-02T09:19:01.959Z,96352.69
2023-11-02T09:21:30.642Z,96377.09
2023-11-02T09:23:57.713Z,96379.25
2023-11-02T09:26:24.359Z,96402.56
2023-11-02T09:28:51.140Z,96419.81
2023-11-02T09:31:23.573Z,96429.47
2023-11-02T09:33:52.770Z,96437.16
2023-11-02T09:36:22.545Z,96454.50
2023-11-02T09:38:49.646Z,96457.41
2023-11-02T09:41:16.331Z,96467.88
2023-11-02T09:43:43.118Z,96486.16
2023-11-02T09:46:14.092Z,96491.28
2023-11-02T09:48:41.572Z,96511.59
2023-11-02T09:51:09.570Z,96513.97
2023-11-02T09:53:36.256Z,96536.47
2023-11-02T09:56:05.383Z,96547.91
2023-11-02T09:58:33.443Z,96549.00
2023-11-02T10:01:03.885Z,96561.16
2023-11-02T10:03:30.655Z,96574.06
2023-11-02T10:05:58.369Z,96578.91
2023-11-02T10:08:25.542Z,96603.66
2023-11-02T10:11:10.427Z,96607.16
2023-11-02T10:13:39.280Z,96625.88
2023-11-02T10:16:06.412Z,96627.91
2023-11-02T10:18:33.462Z,96638.25
2023-11-02T10:21:09.713Z,96650.66
2023-11-02T10:23:56.958Z,96664.53
2023-11-02T10:26:30.142Z,96671.59
2023-11-02T10:29:00.168Z,96677.34
2023-11-02T10:31:31.704Z,96674.25
2023-11-02T10:34:04.401Z,96686.56
2023-11-02T10:36:31.295Z,96686.25
2023-11-02T10:39:01.955Z,96699.84
2023-11-02T10:41:29.877Z,96698.78
2023-11-02T10:43:57.580Z,96711.06
2023-11-02T10:46:29.045Z,96720.81
2023-11-02T10:49:00.521Z,96722.97
2023-11-02T10:51:31.015Z,96740.50
2023-11-02T10:54:20.309Z,96735.81
2023-11-02T10:56:54.183Z,96748.91
2023-11-02T10:59:22.319Z,96751.56
2023-11-02T11:01:51.897Z,96759.91
2023-11-02T11:04:20.380Z,96766.00
2023-11-02T11:06:50.045Z,96769.84
2023-11-02T11:09:17.555Z,96773.47
2023-11-02T11:11:44.445Z,96772.28
2023-11-02T11:14:16.363Z,96784.88
2023-11-02T11:16:45.262Z,96793.22
2023-11-02T11:19:12.634Z,96797.50
2023-11-02T11:21:43.606Z,96789.72
2023-11-02T11:24:12.618Z,96807.66
2023-11-02T11:26:49.550Z,96816.53
2023-11-02T11:29:43.498Z,96819.00
2023-11-02T11:32:38.894Z,96818.47
2023-11-02T11:35:06.598Z,96832.63
2023-11-02T11:38:07.054Z,96827.19
2023-11-02T11:40:33.971Z,96834.59
2023-11-02T11:43:13.343Z,96846.03
2023-11-02T11:45:56.941Z,96840.56
2023-11-02T11:48:33.468Z,96849.47
2023-11-02T11:51:00.686Z,96862.19
2023-11-02T11:53:27.877Z,96861.34
2023-11-02T11:56:02.924Z,96875.69
2023-11-02T11:58:38.746Z,96873.78
2023-11-02T12:01:14.358Z,96878.47
2023-11-02T12:03:41.042Z,96888.00
2023-11-02T12:06:11.973Z,96904.38
2023-11-02T12:08:48.306Z,96901.19
2023-11-02T12:11:23.464Z,96917.47
2023-11-02T12:13:53.886Z,96928.59
2023-11-02T12:16:22.000Z,96944.47
2023-11-02T12:18:53.057Z,96940.06
2023-11-02T12:21:23.916Z,96946.50
2023-11-02T12:23:56.872Z,96970.31
2023-11-02T12:26:28.920Z,96973.59
2023-11-02T12:29:00.132Z,96978.41
2023-11-02T12:31:34.645Z,96973.59
2023-11-02T12:34:04.430Z,96992.25
2023-11-02T12:36:34.083Z,97011.63
2023-11-02T12:39:01.177Z,97019.44
2023-11-02T12:41:29.144Z,97014.41
2023-11-02T12:44:08.909Z,97020.50
2023-11-02T12:47:04.705Z,97034.03
2023-11-02T12:49:36.399Z,97033.38
2023-11-02T12:52:10.202Z,97038.69
2023-11-02T12:54:40.833Z,97040.41
2023-11-02T12:57:10.223Z,97051.00
2023-11-02T12:59:47.574Z,97060.66
2023-11-02T13:02:26.935Z,97076.84
2023-11-02T13:04:57.297Z,97072.97
2023-11-02T13:07:32.501Z,97097.25
2023-11-02T13:10:00.746Z,97104.03
2023-11-02T13:12:30.401Z,97115.59
2023-11-02T13:14:57.470Z,97111.06
2023-11-02T13:17:25.749Z,97122.44
2023-11-02T13:19:55.264Z,97134.75
2023-11-02T13:22:21.931Z,97135.59
2023-11-02T13:24:49.665Z,97135.97
2023-11-02T13:27:16.847Z,97151.19
2023-11-02T13:29:47.418Z,97155.31
2023-11-02T13:32:16.766Z,97178.38
2023-11-02T13:34:43.714Z,97177.66
2023-11-02T13:37:12.621Z,97177.94
2023-11-02T13:39:39.498Z,97194.66
2023-11-02T13:42:07.373Z,97189.91
2023-11-02T13:44:36.830Z,97206.63
2023-11-02T13:47:04.011Z,97210.44
2023-11-02T13:49:33.499Z,97216.28
2023-11-02T13:52:00.545Z,97224.66
2023-11-02T13:54:27.288Z,97245.13
2023-11-02T13:56:56.337Z,97247.44
2023-11-02T13:59:28.081Z,97256.06
2023-11-02T14:01:55.578Z,97260.38
2023-11-02T14:04:26.995Z,97269.00
2023-11-02T14:06:57.123Z,97271.53
2023-11-02T14:09:24.169Z,97286.94
2023-11-02T14:11:53.160Z,97299.56
2023-11-02T14:14:19.961Z,97301.88
2023-11-02T14:16:46.651Z,97311.47
2023-11-02T14:19:13.819Z,97320.81
2023-11-02T14:21:42.947Z,97339.75
2023-11-02T14:24:12.603Z,97336.75
2023-11-02T14:26:39.342Z,97352.41
2023-11-02T14:29:06.031Z,97350.66
2023-11-02T14:31:35.667Z,97363.50
2023-11-02T14:34:03.945Z,97370.41
2023-11-02T14:36:32.137Z,97369.75
2023-11-02T14:39:02.018Z,97382.44
2023-11-02T14:41:28.796Z,97386.50
2023-11-02T14:43:56.734Z,97390.41
2023-11-02T14:46:23.449Z,97403.91
2023-11-02T14:48:50.247Z,97408.59
2023-11-02T14:51:19.630Z,97421.13
2023-11-02T14:53:50.784Z,97431.91
2023-11-02T14:56:19.817Z,97435.94
2023-11-02T14:58:49.663Z,97450.81
2023-11-02T15:01:17.352Z,97457.88
2023-11-02T15:03:44.271Z,97468.50
2023-11-02T15:06:11.102Z,97473.81
2023-11-02T15:08:40.510Z,97482.16
2023-11-02T15:11:08.337Z,97482.16
2023-11-02T15:13:38.142Z,97482.47
2023-11-02T15:16:13.348Z,97492.72
2023-11-02T15:18:43.764Z,97510.97
2023-11-02T15:21:13.221Z,97512.72
2023-11-02T15:23:42.909Z,97523.69
2023-11-02T15:26:11.886Z,97529.59
2023-11-02T15:28:38.644Z,97542.03
2023-11-02T15:31:06.064Z,97546.09
2023-11-02T15:33:35.113Z,97551.69
2023-11-02T15:36:05.597Z,97562.06
2023-11-02T15:38:32.421Z,97567.38
2023-11-02T15:40:59.204Z,97567.66
2023-11-02T15:43:30.089Z,97582.03
2023-11-02T15:45:57.191Z,97588.09
2023-11-02T15:48:23.995Z,97597.94
2023-11-02T15:50:51.849Z,97597.16
2023-11-02T15:53:19.571Z,97603.44
2023-11-02T15:55:48.371Z,97609.75
2023-11-02T15:58:15.089Z,97609.25
2023-11-02T16:00:41.922Z,97617.84
2023-11-02T16:03:11.221Z,97637.50
2023-11-02T16:05:38.037Z,97637.47
2023-11-02T16:08:05.135Z,97649.59
2023-11-02T16:10:31.803Z,97646.56
2023-11-02T16:13:00.634Z,97659.41
2023-11-02T16:15:28.392Z,97669.75
2023-11-02T16:17:55.052Z,97667.47
2023-11-02T16:20:21.975Z,97670.00
2023-11-02T16:22:50.865Z,97680.63
2023-11-02T16:25:19.728Z,97692.34
2023-11-02T16:27:47.307Z,97694.31
2023-11-02T16:30:17.049Z,97697.28
2023-11-02T16:32:48.578Z,97713.72
2023-11-02T16:35:28.828Z,97722.28
2023-11-02T16:38:06.158Z,97716.03
2023-11-02T16:40:33.452Z,97725.41
2023-11-02T16:43:05.012Z,97742.88
2023-11-02T16:45:35.540Z,97753.69
2023-11-02T16:48:02.263Z,97759.47
2023-11-02T16:50:28.878Z,97767.28
2023-11-02T16:52:55.938Z,97759.19
2023-11-02T16:55:24.821Z,97783.38
2023-11-02T16:57:54.071Z,97783.59
2023-11-02T17:00:23.352Z,97798.22
2023-11-02T17:02:52.643Z,97799.97
2023-11-02T17:05:21.382Z,97806.03
2023-11-02T17:07:49.923Z,97811.03
2023-11-02T17:10:19.637Z,97823.16
2023-11-02T17:12:53.647Z,97822.91
2023-11-02T17:15:23.124Z,97823.88
2023-11-02T17:17:49.794Z,97830.69
2023-11-02T17:20:18.722Z,97824.88
2023-11-02T17:22:45.391Z,97830.91
2023-11-02T17:25:12.018Z,97836.19
2023-11-02T17:27:43.195Z,97830.88
2023-11-02T17:30:09.984Z,97843.97
2023-11-02T17:32:43.335Z,97852.81
2023-11-02T17:35:10.079Z,97852.53
2023-11-02T17:37:38.858Z,97849.50
2023-11-02T17:40:14.910Z,97859.56
2023-11-02T17:42:44.675Z,97854.78
2023-11-02T17:45:11.601Z,97859.31
2023-11-02T17:47:41.009Z,97869.41
2023-11-02T17:50:10.438Z,97869.88
2023-11-02T17:52:39.574Z,97866.81
2023-11-02T17:55:09.740Z,97877.91
2023-11-02T17:57:38.625Z,97886.75
2023-11-02T18:00:08.244Z,97892.78
2023-11-02T18:02:37.519Z,97899.56
2023-11-02T18:05:05.800Z,97898.06
2023-11-02T18:07:32.686Z,97907.16
2023-11-02T18:10:00.436Z,97904.38
2023-11-02T18:12:27.721Z,97906.38
2023-11-02T18:14:58.971Z,97909.16
2023-11-02T18:17:25.932Z,97919.97
2023-11-02T18:19:54.959Z,97925.25
2023-11-02T18:22:21.596Z,97921.72
2023-11-02T18:24:53.033Z,97928.53
2023-11-02T18:27:19.719Z,97937.81
2023-11-02T18:29:46.340Z,97942.59
2023-11-02T18:32:14.309Z,97949.41
2023-11-02T18:34:44.175Z,97946.63
2023-11-02T18:37:13.149Z,97954.69
2023-11-02T18:39:42.330Z,97951.16
2023-11-02T18:42:11.295Z,97956.91
2023-11-02T18:44:38.115Z,97955.28
2023-11-02T18:47:07.833Z,97963.69
2023-11-02T18:49:40.137Z,97957.75
2023-11-02T18:52:10.036Z,97959.81
2023-11-02T18:54:39.209Z,97965.34
2023-11-02T18:57:06.172Z,97979.53
2023-11-02T18:59:33.404Z,97979.28
2023-11-02T19:02:02.278Z,97978.22
2023-11-02T19:04:29.385Z,97986.84
2023-11-02T19:06:56.123Z,97992.66
2023-11-02T19:09:23.966Z,97988.88
2023-11-02T19:11:50.869Z,97994.44
2023-11-02T19:14:20.208Z,97992.44
2023-11-02T19:16:48.089Z,97994.19
2023-11-02T19:19:14.910Z,98003.31
2023-11-02T19:21:45.598Z,98001.53
2023-11-02T19:24:14.372Z,98005.06
2023-11-02T19:26:45.232Z,98008.59
2023-11-02T19:29:12.491Z,98009.38
2023-11-02T19:31:53.235Z,98014.72
2023-11-02T19:34:25.272Z,98024.03
2023-11-02T19:36:55.610Z,98014.59
2023-11-02T19:39:22.530Z,98025.88
2023-11-02T19:41:49.908Z,98037.13
2023-11-02T19:44:16.973Z,98041.34
2023-11-02T19:46:46.345Z,98050.38
2023-11-02T19:49:13.948Z,98037.47
2023-11-02T19:51:43.961Z,98048.00
2023-11-02T19:54:11.578Z,98051.22
2023-11-02T19:56:46.470Z,98051.94
2023-11-02T19:59:17.925Z,98054.19
2023-11-02T20:01:44.634Z,98053.84
2023-11-02T20:04:12.537Z,98061.63
2023-11-02T20:06:39.785Z,98069.16
2023-11-02T20:09:07.621Z,98067.38
2023-11-02T20:11:34.683Z,98065.31
2023-11-02T20:14:01.488Z,98074.63
2023-11-02T20:16:28.114Z,98081.13
2023-11-02T20:18:54.875Z,98088.91
2023-11-02T20:21:27.728Z,98092.69
2023-11-02T20:23:54.516Z,98092.41
2023-11-02T20:26:21.947Z,98094.91
2023-11-02T20:28:48.864Z,98099.91
2023-11-02T20:31:15.910Z,98096.88
2023-11-02T20:33:43.690Z,98101.09
2023-11-02T20:36:13.003Z,98098.06
2023-11-02T20:38:41.965Z,98099.78
2023-11-02T20:41:08.886Z,98104.31
2023-11-02T20:43:38.435Z,98103.28
2023-11-02T20:46:07.400Z,98106.56
2023-11-02T20:48:37.579Z,98102.72
2023-11-02T20:51:08.926Z,98104.97
2023-11-02T20:53:38.393Z,98111.72
2023-11-02T20:56:05.228Z,98111.47
2023-11-02T20:58:31.851Z,98117.50
2023-11-02T21:01:00.732Z,98111.69
2023-11-02T21:03:29.368Z,98118.50
2023-11-02T21:05:58.343Z,98130.03
2023-11-02T21:08:25.168Z,98131.31
2023-11-02T21:10:51.844Z,98119.94
2023-11-02T21:13:19.208Z,98121.66
2023-11-02T21:15:46.613Z,98139.56
2023-11-02T21:18:15.686Z,98136.03
2023-11-02T21:20:44.596Z,98135.75
2023-11-02T21:23:11.506Z,98134.19
2023-11-02T21:25:40.348Z,98140.25
2023-11-02T21:28:07.102Z,98158.13
2023-11-02T21:30:36.564Z,98143.22
2023-11-02T21:33:06.348Z,98146.50
2023-11-02T21:35:33.256Z,98153.25
2023-11-02T21:38:02.581Z,98139.91
2023-11-02T21:40:31.578Z,98154.25
2023-11-02T21:42:58.678Z,98156.25
2023-11-02T21:45:26.299Z,98147.66
2023-11-02T21:47:55.458Z,98161.22
2023-11-02T21:50:22.111Z,98161.22
2023-11-02T21:52:48.714Z,98164.50
2023-11-02T21:55:18.410Z,98153.88
2023-11-02T21:57:45.481Z,98171.00
2023-11-02T22:00:12.756Z,98171.47
2023-11-02T22:02:39.515Z,98170.44
2023-11-02T22:05:09.593Z,98168.91
2023-11-02T22:07:37.233Z,98172.91
2023-11-02T22:10:04.578Z,98180.47
2023-11-02T22:12:33.520Z,98186.50
2023-11-02T22:15:00.172Z,98179.91
2023-11-02T22:17:27.069Z,98192.25
2023-11-02T22:19:55.928Z,98191.47
2023-11-02T22:22:23.194Z,98189.97
2023-11-02T22:24:49.845Z,98188.44
2023-11-02T22:27:16.501Z,98193.19
2023-11-02T22:29:43.175Z,98186.63
2023-11-02T22:32:09.879Z,98184.31
2023-11-02T22:34:36.931Z,98191.13
2023-11-02T22:37:03.958Z,98184.03
2023-11-02T22:39:30.778Z,98193.59
2023-11-02T22:41:57.882Z,98180.97
2023-11-02T22:44:29.265Z,98184.25
2023-11-02T22:46:58.949Z,98192.56
2023-11-02T22:49:25.582Z,98184.25
2023-11-02T22:51:52.580Z,98177.66
2023-11-02T22:54:19.292Z,98190.00
2023-11-02T22:56:51.467Z,98187.22
2023-11-02T22:59:20.430Z,98191.22
2023-11-02T23:01:47.115Z,98199.53
2023-11-02T23:04:16.158Z,98200.75
2023-11-02T23:06:42.872Z,98202.75
2023-11-02T23:09:12.110Z,98209.56
2023-11-02T23:11:41.053Z,98209.28
2023-11-02T23:14:07.815Z,98218.81
2023-11-02T23:16:34.463Z,98231.88
2023-11-02T23:19:05.870Z,98222.84
2023-11-02T23:21:35.013Z,98227.59
2023-11-02T23:24:01.681Z,98226.84
2023-11-02T23:26:28.485Z,98228.47
2023-11-02T23:29:07.909Z,98230.69
2023-11-02T23:31:39.427Z,98243.06
2023-11-02T23:34:07.230Z,98246.66
2023-11-02T23:36:36.219Z,98239.81
2023-11-02T23:39:05.540Z,98248.19
2023-11-02T23:41:41.804Z,98246.03
2023-11-02T23:44:10.895Z,98253.19
2023-11-02T23:46:37.502Z,98257.41
2023-11-02T23:49:05.553Z,98266.69
2023-11-02T23:51:34.683Z,98257.03
2023-11-02T23:54:01.353Z,98265.56
2023-11-02T23:56:34.850Z,98270.81
2023-11-02T23:59:02.255Z,98282.31
